Crestview Terrace, Illinois
Current Conditions -  °F | °C
As of 12:15 PM on Thursday 23 Oct 2014 (Local Time) from KFWC Reporting Station
Clear Clear  
Wind Chill: 57°   Ceiling: Unl
Heat Index: 57°   Visibility: 10mi
Dew Point: 44°   Wind: 3mph
Humidity: 61%   Direction: 170°S
Pressure: 30.22"   Gusts: NA
Location:  38.3669°N, 88.3516°W
Report Text: KFWC 231715Z AUTO 17003KT 10SM CLR 14/07 A3022 RMK AO1 T01390065
Loading
Personal Weather Stations






























Interactive Weather Map
Tropical Storm Tracking
New forecast layout! Learn more

10-Day Weather Forecast

Advertisements
Track Severe Weather on mobile